sensor_id;sensor_type;location;lat;lon;timestamp;P1;durP1;ratioP1;P2;durP2;ratioP2
57615;SDS011;43816;52.054;-9.494;2023-05-07T00:00:05;1.60;;;1.23;;
57615;SDS011;43816;52.054;-9.494;2023-05-07T00:00:16;1.50;;;1.20;;
57615;SDS011;43816;52.054;-9.494;2023-05-07T00:00:28;1.50;;;1.00;;
57615;SDS011;43816;52.054;-9.494;2023-05-07T00:00:38;1.33;;;0.90;;
57615;SDS011;43816;52.054;-9.494;2023-05-07T00:00:48;1.37;;;0.90;;
57615;SDS011;43816;52.054;-9.494;2023-05-07T00:00:59;1.77;;;1.00;;
57615;SDS011;43816;52.054;-9.494;2023-05-07T00:01:09;1.73;;;1.07;;
57615;SDS011;43816;52.054;-9.494;2023-05-07T00:01:19;1.90;;;1.17;;
57615;SDS011;43816;52.054;-9.494;2023-05-07T00:01:29;1.88;;;1.15;;
57615;SDS011;43816;52.054;-9.494;2023-05-07T00:01:40;1.97;;;1.10;;
57615;SDS011;43816;52.054;-9.494;2023-05-07T00:01:50;1.70;;;0.93;;
57615;SDS011;43816;52.054;-9.494;2023-05-07T00:02:00;1.50;;;0.90;;
57615;SDS011;43816;52.054;-9.494;2023-05-07T00:02:11;1.37;;;0.90;;
57615;SDS011;43816;52.054;-9.494;2023-05-07T00:02:21;1.60;;;1.00;;
57615;SDS011;43816;52.054;-9.494;2023-05-07T00:02:31;2.00;;;1.00;;
57615;SDS011;43816;52.054;-9.494;2023-05-07T00:02:41;1.80;;;0.90;;
57615;SDS011;43816;52.054;-9.494;2023-05-07T00:02:52;2.13;;;1.03;;
57615;SDS011;43816;52.054;-9.494;2023-05-07T00:03:02;1.90;;;1.03;;
57615;SDS011;43816;52.054;-9.494;2023-05-07T00:03:13;2.35;;;1.08;;
57615;SDS011;43816;52.054;-9.494;2023-05-07T00:03:23;1.80;;;0.97;;
57615;SDS011;43816;52.054;-9.494;2023-05-07T00:03:33;1.58;;;0.93;;
57615;SDS011;43816;52.054;-9.494;2023-05-07T00:03:44;1.37;;;1.00;;
57615;SDS011;43816;52.054;-9.494;2023-05-07T00:03:54;1.60;;;1.10;;
57615;SDS011;43816;52.054;-9.494;2023-05-07T00:04:07;2.07;;;1.10;;
57615;SDS011;43816;52.054;-9.494;2023-05-07T00:04:17;2.22;;;1.00;;
57615;SDS011;43816;52.054;-9.494;2023-05-07T00:04:28;1.60;;;0.83;;
57615;SDS011;43816;52.054;-9.494;2023-05-07T00:04:38;1.25;;;0.90;;
57615;SDS011;43816;52.054;-9.494;2023-05-07T00:04:48;1.20;;;0.87;;
57615;SDS011;43816;52.054;-9.494;2023-05-07T00:04:59;1.33;;;0.90;;
57615;SDS011;43816;52.054;-9.494;2023-05-07T00:05:09;1.35;;;0.88;;
57615;SDS011;43816;52.054;-9.494;2023-05-07T00:05:20;1.50;;;1.00;;
57615;SDS011;43816;52.054;-9.494;2023-05-07T00:05:30;1.52;;;1.10;;
57615;SDS011;43816;52.054;-9.494;2023-05-07T00:05:40;1.40;;;1.10;;
57615;SDS011;43816;52.054;-9.494;2023-05-07T00:05:50;1.57;;;0.90;;
57615;SDS011;43816;52.054;-9.494;2023-05-07T00:06:01;1.40;;;0.77;;
57615;SDS011;43816;52.054;-9.494;2023-05-07T00:06:11;1.20;;;0.80;;
57615;SDS011;43816;52.054;-9.494;2023-05-07T00:06:21;1.00;;;0.87;;
57615;SDS011;43816;52.054;-9.494;2023-05-07T00:06:32;1.30;;;0.90;;
57615;SDS011;43816;52.054;-9.494;2023-05-07T00:06:42;1.48;;;0.93;;
57615;SDS011;43816;52.054;-9.494;2023-05-07T00:06:53;1.40;;;0.93;;
57615;SDS011;43816;52.054;-9.494;2023-05-07T00:07:03;1.40;;;1.08;;
57615;SDS011;43816;52.054;-9.494;2023-05-07T00:07:14;1.60;;;1.10;;
57615;SDS011;43816;52.054;-9.494;2023-05-07T00:07:24;1.58;;;1.02;;
57615;SDS011;43816;52.054;-9.494;2023-05-07T00:07:35;1.73;;;1.00;;
57615;SDS011;43816;52.054;-9.494;2023-05-07T00:07:46;1.40;;;1.00;;
57615;SDS011;43816;52.054;-9.494;2023-05-07T00:07:56;1.90;;;1.05;;
57615;SDS011;43816;52.054;-9.494;2023-05-07T00:08:06;1.80;;;1.00;;
57615;SDS011;43816;52.054;-9.494;2023-05-07T00:08:17;1.83;;;1.05;;
57615;SDS011;43816;52.054;-9.494;2023-05-07T00:08:27;1.53;;;1.00;;
57615;SDS011;43816;52.054;-9.494;2023-05-07T00:08:38;1.37;;;0.97;;
57615;SDS011;43816;52.054;-9.494;2023-05-07T00:08:48;1.27;;;0.90;;
57615;SDS011;43816;52.054;-9.494;2023-05-07T00:08:58;1.50;;;1.00;;
57615;SDS011;43816;52.054;-9.494;2023-05-07T00:09:09;2.03;;;1.10;;
57615;SDS011;43816;52.054;-9.494;2023-05-07T00:09:19;2.07;;;1.10;;
57615;SDS011;43816;52.054;-9.494;2023-05-07T00:09:29;1.80;;;1.00;;
57615;SDS011;43816;52.054;-9.494;2023-05-07T00:09:40;1.60;;;1.00;;
57615;SDS011;43816;52.054;-9.494;2023-05-07T00:09:50;1.50;;;1.00;;
57615;SDS011;43816;52.054;-9.494;2023-05-07T00:10:01;1.40;;;1.10;;
57615;SDS011;43816;52.054;-9.494;2023-05-07T00:10:11;1.38;;;1.10;;
57615;SDS011;43816;52.054;-9.494;2023-05-07T00:10:22;1.30;;;0.90;;
57615;SDS011;43816;52.054;-9.494;2023-05-07T00:10:32;1.47;;;0.80;;
57615;SDS011;43816;52.054;-9.494;2023-05-07T00:10:42;2.00;;;0.90;;
57615;SDS011;43816;52.054;-9.494;2023-05-07T00:10:52;2.08;;;1.00;;
57615;SDS011;43816;52.054;-9.494;2023-05-07T00:11:03;1.80;;;0.97;;
57615;SDS011;43816;52.054;-9.494;2023-05-07T00:11:13;1.23;;;0.90;;
57615;SDS011;43816;52.054;-9.494;2023-05-07T00:11:23;1.50;;;0.90;;
57615;SDS011;43816;52.054;-9.494;2023-05-07T00:11:34;1.97;;;1.00;;
57615;SDS011;43816;52.054;-9.494;2023-05-07T00:11:44;2.37;;;1.10;;
57615;SDS011;43816;52.054;-9.494;2023-05-07T00:11:54;2.00;;;1.05;;
57615;SDS011;43816;52.054;-9.494;2023-05-07T00:12:05;1.60;;;1.00;;
57615;SDS011;43816;52.054;-9.494;2023-05-07T00:12:15;1.60;;;0.90;;
57615;SDS011;43816;52.054;-9.494;2023-05-07T00:12:26;1.77;;;0.97;;
57615;SDS011;43816;52.054;-9.494;2023-05-07T00:12:36;1.83;;;0.90;;
57615;SDS011;43816;52.054;-9.494;2023-05-07T00:12:46;1.67;;;0.90;;
57615;SDS011;43816;52.054;-9.494;2023-05-07T00:12:56;1.97;;;1.07;;
57615;SDS011;43816;52.054;-9.494;2023-05-07T00:13:07;1.93;;;1.10;;
57615;SDS011;43816;52.054;-9.494;2023-05-07T00:13:17;1.65;;;1.08;;
57615;SDS011;43816;52.054;-9.494;2023-05-07T00:13:27;1.03;;;0.83;;
57615;SDS011;43816;52.054;-9.494;2023-05-07T00:13:38;1.17;;;0.80;;
57615;SDS011;43816;52.054;-9.494;2023-05-07T00:13:48;1.20;;;0.80;;
57615;SDS011;43816;52.054;-9.494;2023-05-07T00:13:58;1.77;;;1.00;;
57615;SDS011;43816;52.054;-9.494;2023-05-07T00:14:09;2.03;;;1.10;;
57615;SDS011;43816;52.054;-9.494;2023-05-07T00:14:19;2.25;;;1.17;;
57615;SDS011;43816;52.054;-9.494;2023-05-07T00:14:29;2.20;;;1.20;;
57615;SDS011;43816;52.054;-9.494;2023-05-07T00:14:40;2.30;;;1.10;;
57615;SDS011;43816;52.054;-9.494;2023-05-07T00:14:50;2.10;;;1.10;;
57615;SDS011;43816;52.054;-9.494;2023-05-07T00:15:04;1.77;;;1.03;;
57615;SDS011;43816;52.054;-9.494;2023-05-07T00:15:15;1.77;;;1.00;;
57615;SDS011;43816;52.054;-9.494;2023-05-07T00:15:25;2.03;;;0.97;;
57615;SDS011;43816;52.054;-9.494;2023-05-07T00:15:36;1.97;;;1.00;;
57615;SDS011;43816;52.054;-9.494;2023-05-07T00:15:46;1.83;;;0.90;;
57615;SDS011;43816;52.054;-9.494;2023-05-07T00:15:56;1.60;;;0.90;;
57615;SDS011;43816;52.054;-9.494;2023-05-07T00:16:06;1.43;;;0.90;;
57615;SDS011;43816;52.054;-9.494;2023-05-07T00:16:17;1.23;;;0.90;;
57615;SDS011;43816;52.054;-9.494;2023-05-07T00:16:27;1.03;;;0.93;;
57615;SDS011;43816;52.054;-9.494;2023-05-07T00:16:37;1.37;;;0.93;;
57615;SDS011;43816;52.054;-9.494;2023-05-07T00:16:48;1.45;;;0.95;;
57615;SDS011;43816;52.054;-9.494;2023-05-07T00:16:58;1.93;;;1.10;;
57615;SDS011;43816;52.054;-9.494;2023-05-07T00:17:08;1.87;;;1.00;;
57615;SDS011;43816;52.054;-9.494;2023-05-07T00:17:19;1.83;;;1.02;;
57615;SDS011;43816;52.054;-9.494;2023-05-07T00:17:29;1.50;;;1.00;;
57615;SDS011;43816;52.054;-9.494;2023-05-07T00:17:40;1.63;;;1.00;;
57615;SDS011;43816;52.054;-9.494;2023-05-07T00:17:50;1.50;;;0.90;;
57615;SDS011;43816;52.054;-9.494;2023-05-07T00:18:00;1.33;;;0.80;;
57615;SDS011;43816;52.054;-9.494;2023-05-07T00:18:11;1.05;;;0.77;;
57615;SDS011;43816;52.054;-9.494;2023-05-07T00:18:21;1.47;;;0.97;;
57615;SDS011;43816;52.054;-9.494;2023-05-07T00:18:31;1.63;;;1.00;;
57615;SDS011;43816;52.054;-9.494;2023-05-07T00:18:42;1.50;;;0.90;;
57615;SDS011;43816;52.054;-9.494;2023-05-07T00:18:52;1.07;;;0.77;;
57615;SDS011;43816;52.054;-9.494;2023-05-07T00:19:03;1.08;;;0.80;;
57615;SDS011;43816;52.054;-9.494;2023-05-07T00:19:13;1.10;;;0.80;;
57615;SDS011;43816;52.054;-9.494;2023-05-07T00:19:24;1.40;;;0.97;;
57615;SDS011;43816;52.054;-9.494;2023-05-07T00:19:34;1.40;;;1.00;;
57615;SDS011;43816;52.054;-9.494;2023-05-07T00:19:44;1.40;;;1.00;;
57615;SDS011;43816;52.054;-9.494;2023-05-07T00:19:55;1.33;;;0.90;;
57615;SDS011;43816;52.054;-9.494;2023-05-07T00:20:05;1.27;;;0.80;;
57615;SDS011;43816;52.054;-9.494;2023-05-07T00:20:16;1.40;;;1.00;;
57615;SDS011;43816;52.054;-9.494;2023-05-07T00:20:26;1.27;;;1.00;;
57615;SDS011;43816;52.054;-9.494;2023-05-07T00:20:37;1.57;;;1.10;;
57615;SDS011;43816;52.054;-9.494;2023-05-07T00:20:47;1.60;;;1.00;;
57615;SDS011;43816;52.054;-9.494;2023-05-07T00:20:57;1.73;;;1.00;;
57615;SDS011;43816;52.054;-9.494;2023-05-07T00:21:08;1.60;;;0.90;;
57615;SDS011;43816;52.054;-9.494;2023-05-07T00:21:18;1.53;;;0.90;;
57615;SDS011;43816;52.054;-9.494;2023-05-07T00:21:28;1.75;;;1.10;;
57615;SDS011;43816;52.054;-9.494;2023-05-07T00:21:38;1.77;;;1.10;;
57615;SDS011;43816;52.054;-9.494;2023-05-07T00:21:49;1.63;;;1.00;;
57615;SDS011;43816;52.054;-9.494;2023-05-07T00:21:59;1.30;;;0.90;;
57615;SDS011;43816;52.054;-9.494;2023-05-07T00:22:09;1.40;;;0.90;;
57615;SDS011;43816;52.054;-9.494;2023-05-07T00:22:20;1.53;;;0.90;;
57615;SDS011;43816;52.054;-9.494;2023-05-07T00:22:30;1.40;;;0.80;;
57615;SDS011;43816;52.054;-9.494;2023-05-07T00:22:41;1.20;;;0.75;;
57615;SDS011;43816;52.054;-9.494;2023-05-07T00:22:51;1.10;;;0.80;;
57615;SDS011;43816;52.054;-9.494;2023-05-07T00:23:02;1.13;;;0.80;;
57615;SDS011;43816;52.054;-9.494;2023-05-07T00:23:12;1.17;;;0.80;;
57615;SDS011;43816;52.054;-9.494;2023-05-07T00:23:22;1.10;;;0.80;;
57615;SDS011;43816;52.054;-9.494;2023-05-07T00:23:33;1.10;;;0.90;;
57615;SDS011;43816;52.054;-9.494;2023-05-07T00:23:43;1.27;;;0.95;;
57615;SDS011;43816;52.054;-9.494;2023-05-07T00:23:53;1.60;;;0.97;;
57615;SDS011;43816;52.054;-9.494;2023-05-07T00:24:04;1.40;;;0.85;;
57615;SDS011;43816;52.054;-9.494;2023-05-07T00:24:14;1.20;;;0.83;;
57615;SDS011;43816;52.054;-9.494;2023-05-07T00:24:25;1.17;;;0.83;;
57615;SDS011;43816;52.054;-9.494;2023-05-07T00:24:35;1.42;;;0.90;;
57615;SDS011;43816;52.054;-9.494;2023-05-07T00:24:45;1.83;;;1.10;;
57615;SDS011;43816;52.054;-9.494;2023-05-07T00:24:56;1.90;;;1.10;;
57615;SDS011;43816;52.054;-9.494;2023-05-07T00:25:06;2.78;;;1.20;;
57615;SDS011;43816;52.054;-9.494;2023-05-07T00:25:17;2.60;;;1.00;;
57615;SDS011;43816;52.054;-9.494;2023-05-07T00:25:27;2.38;;;1.00;;
57615;SDS011;43816;52.054;-9.494;2023-05-07T00:25:37;1.60;;;0.90;;
57615;SDS011;43816;52.054;-9.494;2023-05-07T00:25:47;1.47;;;0.90;;
57615;SDS011;43816;52.054;-9.494;2023-05-07T00:25:58;1.40;;;1.00;;
57615;SDS011;43816;52.054;-9.494;2023-05-07T00:26:08;1.17;;;0.90;;
57615;SDS011;43816;52.054;-9.494;2023-05-07T00:26:18;1.37;;;0.93;;
57615;SDS011;43816;52.054;-9.494;2023-05-07T00:26:29;1.70;;;1.00;;
57615;SDS011;43816;52.054;-9.494;2023-05-07T00:26:39;2.00;;;1.00;;
57615;SDS011;43816;52.054;-9.494;2023-05-07T00:26:49;1.93;;;0.90;;
57615;SDS011;43816;52.054;-9.494;2023-05-07T00:26:59;1.67;;;0.90;;
57615;SDS011;43816;52.054;-9.494;2023-05-07T00:27:10;1.57;;;0.80;;
57615;SDS011;43816;52.054;-9.494;2023-05-07T00:27:20;1.33;;;0.83;;
57615;SDS011;43816;52.054;-9.494;2023-05-07T00:27:30;1.20;;;0.80;;
57615;SDS011;43816;52.054;-9.494;2023-05-07T00:27:41;1.17;;;0.80;;
57615;SDS011;43816;52.054;-9.494;2023-05-07T00:27:51;1.30;;;0.80;;
57615;SDS011;43816;52.054;-9.494;2023-05-07T00:28:01;1.50;;;0.80;;
57615;SDS011;43816;52.054;-9.494;2023-05-07T00:28:11;1.38;;;0.82;;
57615;SDS011;43816;52.054;-9.494;2023-05-07T00:28:22;1.20;;;0.80;;
57615;SDS011;43816;52.054;-9.494;2023-05-07T00:28:32;1.10;;;0.90;;
57615;SDS011;43816;52.054;-9.494;2023-05-07T00:28:42;1.27;;;0.85;;
57615;SDS011;43816;52.054;-9.494;2023-05-07T00:28:53;1.40;;;0.90;;
57615;SDS011;43816;52.054;-9.494;2023-05-07T00:29:03;1.67;;;0.87;;
57615;SDS011;43816;52.054;-9.494;2023-05-07T00:29:13;1.53;;;0.83;;
57615;SDS011;43816;52.054;-9.494;2023-05-07T00:29:23;1.58;;;0.70;;
57615;SDS011;43816;52.054;-9.494;2023-05-07T00:29:34;1.57;;;0.80;;
57615;SDS011;43816;52.054;-9.494;2023-05-07T00:29:44;1.77;;;0.80;;
57615;SDS011;43816;52.054;-9.494;2023-05-07T00:29:54;1.50;;;0.80;;
57615;SDS011;43816;52.054;-9.494;2023-05-07T00:30:05;1.30;;;0.70;;
57615;SDS011;43816;52.054;-9.494;2023-05-07T00:30:16;1.10;;;0.60;;
57615;SDS011;43816;52.054;-9.494;2023-05-07T00:30:26;0.90;;;0.70;;
57615;SDS011;43816;52.054;-9.494;2023-05-07T00:30:36;0.70;;;0.70;;
57615;SDS011;43816;52.054;-9.494;2023-05-07T00:30:47;0.87;;;0.70;;
57615;SDS011;43816;52.054;-9.494;2023-05-07T00:30:57;1.00;;;0.70;;
57615;SDS011;43816;52.054;-9.494;2023-05-07T00:31:07;1.20;;;0.70;;
57615;SDS011;43816;52.054;-9.494;2023-05-07T00:31:17;1.33;;;0.80;;
57615;SDS011;43816;52.054;-9.494;2023-05-07T00:31:28;1.33;;;0.80;;
57615;SDS011;43816;52.054;-9.494;2023-05-07T00:31:38;1.35;;;0.70;;
57615;SDS011;43816;52.054;-9.494;2023-05-07T00:31:49;1.23;;;0.80;;
57615;SDS011;43816;52.054;-9.494;2023-05-07T00:31:59;1.17;;;0.80;;
57615;SDS011;43816;52.054;-9.494;2023-05-07T00:32:09;1.30;;;0.87;;
57615;SDS011;43816;52.054;-9.494;2023-05-07T00:32:20;1.73;;;1.00;;
57615;SDS011;43816;52.054;-9.494;2023-05-07T00:32:30;1.77;;;1.00;;
57615;SDS011;43816;52.054;-9.494;2023-05-07T00:32:40;1.73;;;1.00;;
57615;SDS011;43816;52.054;-9.494;2023-05-07T00:32:51;1.50;;;0.90;;
57615;SDS011;43816;52.054;-9.494;2023-05-07T00:33:01;1.55;;;0.90;;
57615;SDS011;43816;52.054;-9.494;2023-05-07T00:33:11;1.53;;;0.90;;
57615;SDS011;43816;52.054;-9.494;2023-05-07T00:33:21;1.30;;;0.80;;
57615;SDS011;43816;52.054;-9.494;2023-05-07T00:33:32;1.23;;;0.68;;
57615;SDS011;43816;52.054;-9.494;2023-05-07T00:33:42;1.20;;;0.70;;
57615;SDS011;43816;52.054;-9.494;2023-05-07T00:33:52;1.10;;;0.80;;
57615;SDS011;43816;52.054;-9.494;2023-05-07T00:34:03;1.23;;;0.90;;
57615;SDS011;43816;52.054;-9.494;2023-05-07T00:34:13;1.40;;;1.00;;
57615;SDS011;43816;52.054;-9.494;2023-05-07T00:34:23;1.30;;;0.90;;
57615;SDS011;43816;52.054;-9.494;2023-05-07T00:34:33;1.27;;;0.80;;
57615;SDS011;43816;52.054;-9.494;2023-05-07T00:34:44;1.17;;;0.80;;
57615;SDS011;43816;52.054;-9.494;2023-05-07T00:34:54;1.27;;;0.80;;
57615;SDS011;43816;52.054;-9.494;2023-05-07T00:35:05;1.27;;;0.80;;
57615;SDS011;43816;52.054;-9.494;2023-05-07T00:35:16;1.23;;;0.80;;
57615;SDS011;43816;52.054;-9.494;2023-05-07T00:35:26;1.40;;;0.93;;
57615;SDS011;43816;52.054;-9.494;2023-05-07T00:35:36;1.40;;;1.00;;
57615;SDS011;43816;52.054;-9.494;2023-05-07T00:35:47;1.48;;;1.00;;
57615;SDS011;43816;52.054;-9.494;2023-05-07T00:35:57;1.67;;;0.87;;
57615;SDS011;43816;52.054;-9.494;2023-05-07T00:36:08;1.50;;;0.80;;
57615;SDS011;43816;52.054;-9.494;2023-05-07T00:36:18;1.10;;;0.70;;
57615;SDS011;43816;52.054;-9.494;2023-05-07T00:36:28;0.87;;;0.70;;
57615;SDS011;43816;52.054;-9.494;2023-05-07T00:36:38;1.08;;;0.70;;
57615;SDS011;43816;52.054;-9.494;2023-05-07T00:36:49;1.20;;;0.70;;
57615;SDS011;43816;52.054;-9.494;2023-05-07T00:36:59;1.10;;;0.80;;
57615;SDS011;43816;52.054;-9.494;2023-05-07T00:37:09;1.03;;;0.70;;
57615;SDS011;43816;52.054;-9.494;2023-05-07T00:37:20;1.17;;;0.80;;
57615;SDS011;43816;52.054;-9.494;2023-05-07T00:37:30;1.50;;;0.80;;
57615;SDS011;43816;52.054;-9.494;2023-05-07T00:37:40;1.60;;;0.90;;
57615;SDS011;43816;52.054;-9.494;2023-05-07T00:37:50;1.52;;;0.80;;
57615;SDS011;43816;52.054;-9.494;2023-05-07T00:38:01;1.40;;;0.80;;
57615;SDS011;43816;52.054;-9.494;2023-05-07T00:38:11;1.10;;;0.80;;
57615;SDS011;43816;52.054;-9.494;2023-05-07T00:38:21;1.33;;;0.73;;
57615;SDS011;43816;52.054;-9.494;2023-05-07T00:38:32;1.20;;;0.65;;
57615;SDS011;43816;52.054;-9.494;2023-05-07T00:38:42;1.27;;;0.70;;
57615;SDS011;43816;52.054;-9.494;2023-05-07T00:38:53;1.07;;;0.70;;
57615;SDS011;43816;52.054;-9.494;2023-05-07T00:39:04;1.00;;;0.80;;
57615;SDS011;43816;52.054;-9.494;2023-05-07T00:39:14;1.27;;;0.90;;
57615;SDS011;43816;52.054;-9.494;2023-05-07T00:39:24;1.52;;;0.98;;
57615;SDS011;43816;52.054;-9.494;2023-05-07T00:39:35;1.60;;;0.90;;
57615;SDS011;43816;52.054;-9.494;2023-05-07T00:39:45;1.30;;;0.70;;
57615;SDS011;43816;52.054;-9.494;2023-05-07T00:39:56;1.00;;;0.60;;
57615;SDS011;43816;52.054;-9.494;2023-05-07T00:40:06;1.05;;;0.70;;
57615;SDS011;43816;52.054;-9.494;2023-05-07T00:40:17;1.23;;;0.70;;
57615;SDS011;43816;52.054;-9.494;2023-05-07T00:40:27;1.47;;;0.80;;
57615;SDS011;43816;52.054;-9.494;2023-05-07T00:40:38;1.50;;;0.80;;
57615;SDS011;43816;52.054;-9.494;2023-05-07T00:40:48;1.20;;;0.80;;
57615;SDS011;43816;52.054;-9.494;2023-05-07T00:40:58;1.00;;;0.70;;
57615;SDS011;43816;52.054;-9.494;2023-05-07T00:41:09;1.13;;;0.70;;
57615;SDS011;43816;52.054;-9.494;2023-05-07T00:41:19;1.25;;;0.77;;
57615;SDS011;43816;52.054;-9.494;2023-05-07T00:41:29;1.40;;;0.77;;
57615;SDS011;43816;52.054;-9.494;2023-05-07T00:41:40;1.00;;;0.70;;
57615;SDS011;43816;52.054;-9.494;2023-05-07T00:41:50;1.20;;;0.70;;
57615;SDS011;43816;52.054;-9.494;2023-05-07T00:42:00;1.10;;;0.77;;
57615;SDS011;43816;52.054;-9.494;2023-05-07T00:42:11;1.23;;;0.82;;
57615;SDS011;43816;52.054;-9.494;2023-05-07T00:42:21;1.20;;;0.80;;
57615;SDS011;43816;52.054;-9.494;2023-05-07T00:42:32;1.40;;;0.80;;
57615;SDS011;43816;52.054;-9.494;2023-05-07T00:42:42;1.45;;;0.80;;
57615;SDS011;43816;52.054;-9.494;2023-05-07T00:42:52;1.23;;;0.80;;
57615;SDS011;43816;52.054;-9.494;2023-05-07T00:43:03;0.98;;;0.75;;
57615;SDS011;43816;52.054;-9.494;2023-05-07T00:43:13;1.07;;;0.70;;
57615;SDS011;43816;52.054;-9.494;2023-05-07T00:43:23;1.40;;;0.80;;
57615;SDS011;43816;52.054;-9.494;2023-05-07T00:43:34;1.58;;;0.90;;
57615;SDS011;43816;52.054;-9.494;2023-05-07T00:43:44;1.43;;;0.90;;
57615;SDS011;43816;52.054;-9.494;2023-05-07T00:43:54;1.47;;;0.90;;
57615;SDS011;43816;52.054;-9.494;2023-05-07T00:44:05;1.43;;;0.90;;
57615;SDS011;43816;52.054;-9.494;2023-05-07T00:44:15;1.65;;;0.90;;
57615;SDS011;43816;52.054;-9.494;2023-05-07T00:44:25;1.60;;;0.90;;
57615;SDS011;43816;52.054;-9.494;2023-05-07T00:44:36;1.42;;;0.85;;
57615;SDS011;43816;52.054;-9.494;2023-05-07T00:44:46;1.27;;;0.80;;
57615;SDS011;43816;52.054;-9.494;2023-05-07T00:44:57;1.85;;;0.77;;
57615;SDS011;43816;52.054;-9.494;2023-05-07T00:45:07;2.13;;;0.80;;
57615;SDS011;43816;52.054;-9.494;2023-05-07T00:45:18;1.98;;;0.80;;
57615;SDS011;43816;52.054;-9.494;2023-05-07T00:45:28;1.40;;;0.90;;
57615;SDS011;43816;52.054;-9.494;2023-05-07T00:45:38;1.50;;;0.90;;
57615;SDS011;43816;52.054;-9.494;2023-05-07T00:45:49;1.30;;;0.80;;
57615;SDS011;43816;52.054;-9.494;2023-05-07T00:45:59;1.23;;;0.80;;
57615;SDS011;43816;52.054;-9.494;2023-05-07T00:46:10;0.93;;;0.68;;
57615;SDS011;43816;52.054;-9.494;2023-05-07T00:46:21;1.00;;;0.65;;
57615;SDS011;43816;52.054;-9.494;2023-05-07T00:46:31;1.10;;;0.70;;
57615;SDS011;43816;52.054;-9.494;2023-05-07T00:46:42;1.38;;;0.80;;
57615;SDS011;43816;52.054;-9.494;2023-05-07T00:46:53;1.60;;;0.90;;
57615;SDS011;43816;52.054;-9.494;2023-05-07T00:47:04;1.67;;;0.95;;
57615;SDS011;43816;52.054;-9.494;2023-05-07T00:47:14;1.67;;;0.90;;
57615;SDS011;43816;52.054;-9.494;2023-05-07T00:47:25;1.55;;;0.80;;
57615;SDS011;43816;52.054;-9.494;2023-05-07T00:47:36;1.47;;;0.80;;
57615;SDS011;43816;52.054;-9.494;2023-05-07T00:47:46;1.47;;;0.80;;
57615;SDS011;43816;52.054;-9.494;2023-05-07T00:48:00;1.45;;;0.85;;
57615;SDS011;43816;52.054;-9.494;2023-05-07T00:48:12;1.67;;;0.90;;
57615;SDS011;43816;52.054;-9.494;2023-05-07T00:48:23;1.95;;;1.00;;
57615;SDS011;43816;52.054;-9.494;2023-05-07T00:48:34;1.58;;;0.93;;
57615;SDS011;43816;52.054;-9.494;2023-05-07T00:48:44;1.50;;;0.90;;
57615;SDS011;43816;52.054;-9.494;2023-05-07T00:48:55;1.50;;;0.80;;
57615;SDS011;43816;52.054;-9.494;2023-05-07T00:49:05;1.92;;;0.82;;
57615;SDS011;43816;52.054;-9.494;2023-05-07T00:49:16;1.95;;;0.93;;
57615;SDS011;43816;52.054;-9.494;2023-05-07T00:49:35;1.63;;;0.90;;
57615;SDS011;43816;52.054;-9.494;2023-05-07T00:49:48;1.30;;;0.77;;
57615;SDS011;43816;52.054;-9.494;2023-05-07T00:49:58;1.05;;;0.70;;
57615;SDS011;43816;52.054;-9.494;2023-05-07T00:50:09;0.87;;;0.60;;
57615;SDS011;43816;52.054;-9.494;2023-05-07T00:50:19;1.00;;;0.70;;
57615;SDS011;43816;52.054;-9.494;2023-05-07T00:50:30;1.20;;;0.80;;
57615;SDS011;43816;52.054;-9.494;2023-05-07T00:50:40;1.48;;;0.93;;
57615;SDS011;43816;52.054;-9.494;2023-05-07T00:50:51;1.67;;;0.90;;
57615;SDS011;43816;52.054;-9.494;2023-05-07T00:51:02;1.47;;;0.80;;
57615;SDS011;43816;52.054;-9.494;2023-05-07T00:51:12;1.45;;;0.80;;
57615;SDS011;43816;52.054;-9.494;2023-05-07T00:51:26;1.23;;;0.80;;
57615;SDS011;43816;52.054;-9.494;2023-05-07T00:51:37;1.00;;;0.75;;
57615;SDS011;43816;52.054;-9.494;2023-05-07T00:51:47;0.90;;;0.73;;
57615;SDS011;43816;52.054;-9.494;2023-05-07T00:51:58;1.10;;;0.70;;
57615;SDS011;43816;52.054;-9.494;2023-05-07T00:52:13;1.10;;;0.70;;
57615;SDS011;43816;52.054;-9.494;2023-05-07T00:52:25;1.00;;;0.65;;
57615;SDS011;43816;52.054;-9.494;2023-05-07T00:52:36;0.97;;;0.73;;
57615;SDS011;43816;52.054;-9.494;2023-05-07T00:52:47;1.42;;;0.80;;
57615;SDS011;43816;52.054;-9.494;2023-05-07T00:52:58;1.33;;;0.73;;
57615;SDS011;43816;52.054;-9.494;2023-05-07T00:53:09;1.48;;;0.73;;
57615;SDS011;43816;52.054;-9.494;2023-05-07T00:53:20;1.50;;;0.82;;
57615;SDS011;43816;52.054;-9.494;2023-05-07T00:53:30;1.50;;;0.80;;
57615;SDS011;43816;52.054;-9.494;2023-05-07T00:53:41;1.58;;;0.80;;
57615;SDS011;43816;52.054;-9.494;2023-05-07T00:53:51;1.63;;;0.83;;
57615;SDS011;43816;52.054;-9.494;2023-05-07T00:54:02;1.85;;;0.90;;
57615;SDS011;43816;52.054;-9.494;2023-05-07T00:54:13;1.63;;;0.90;;
57615;SDS011;43816;52.054;-9.494;2023-05-07T00:54:23;1.50;;;0.80;;
57615;SDS011;43816;52.054;-9.494;2023-05-07T00:54:33;1.40;;;0.77;;
57615;SDS011;43816;52.054;-9.494;2023-05-07T00:54:44;1.30;;;0.70;;
57615;SDS011;43816;52.054;-9.494;2023-05-07T00:54:54;1.17;;;0.70;;
57615;SDS011;43816;52.054;-9.494;2023-05-07T00:55:05;1.10;;;0.60;;
57615;SDS011;43816;52.054;-9.494;2023-05-07T00:55:16;0.93;;;0.65;;
57615;SDS011;43816;52.054;-9.494;2023-05-07T00:55:27;0.90;;;0.70;;
57615;SDS011;43816;52.054;-9.494;2023-05-07T00:55:38;1.07;;;0.77;;
57615;SDS011;43816;52.054;-9.494;2023-05-07T00:55:49;1.10;;;0.77;;
57615;SDS011;43816;52.054;-9.494;2023-05-07T00:55:59;1.00;;;0.70;;
57615;SDS011;43816;52.054;-9.494;2023-05-07T00:56:09;0.90;;;0.68;;
57615;SDS011;43816;52.054;-9.494;2023-05-07T00:56:21;0.90;;;0.60;;
57615;SDS011;43816;52.054;-9.494;2023-05-07T00:56:32;1.00;;;0.60;;
57615;SDS011;43816;52.054;-9.494;2023-05-07T00:56:42;1.10;;;0.70;;
57615;SDS011;43816;52.054;-9.494;2023-05-07T00:56:53;1.15;;;0.70;;
57615;SDS011;43816;52.054;-9.494;2023-05-07T00:57:04;1.27;;;0.75;;
57615;SDS011;43816;52.054;-9.494;2023-05-07T00:57:15;1.50;;;0.80;;
57615;SDS011;43816;52.054;-9.494;2023-05-07T00:57:26;1.47;;;0.80;;
57615;SDS011;43816;52.054;-9.494;2023-05-07T00:57:36;1.37;;;0.80;;
57615;SDS011;43816;52.054;-9.494;2023-05-07T00:57:47;1.35;;;0.80;;
57615;SDS011;43816;52.054;-9.494;2023-05-07T00:57:57;1.40;;;0.80;;
57615;SDS011;43816;52.054;-9.494;2023-05-07T00:58:08;1.53;;;0.90;;
57615;SDS011;43816;52.054;-9.494;2023-05-07T00:58:18;1.42;;;0.85;;
57615;SDS011;43816;52.054;-9.494;2023-05-07T00:58:29;1.52;;;0.93;;
57615;SDS011;43816;52.054;-9.494;2023-05-07T00:58:40;1.57;;;0.90;;
57615;SDS011;43816;52.054;-9.494;2023-05-07T00:58:50;1.60;;;0.98;;
57615;SDS011;43816;52.054;-9.494;2023-05-07T00:59:01;1.30;;;0.90;;
57615;SDS011;43816;52.054;-9.494;2023-05-07T00:59:12;1.40;;;0.90;;
57615;SDS011;43816;52.054;-9.494;2023-05-07T00:59:22;1.50;;;1.00;;
57615;SDS011;43816;52.054;-9.494;2023-05-07T00:59:33;1.67;;;0.90;;
57615;SDS011;43816;52.054;-9.494;2023-05-07T00:59:43;1.60;;;0.90;;
57615;SDS011;43816;52.054;-9.494;2023-05-07T00:59:54;1.50;;;0.80;;
57615;SDS011;43816;52.054;-9.494;2023-05-07T01:00:04;1.58;;;0.85;;
57615;SDS011;43816;52.054;-9.494;2023-05-07T01:00:15;1.40;;;0.80;;
57615;SDS011;43816;52.054;-9.494;2023-05-07T01:00:26;1.33;;;0.77;;
57615;SDS011;43816;52.054;-9.494;2023-05-07T01:00:36;1.10;;;0.70;;
57615;SDS011;43816;52.054;-9.494;2023-05-07T01:00:47;1.20;;;0.70;;
57615;SDS011;43816;52.054;-9.494;2023-05-07T01:00:57;1.30;;;0.75;;
57615;SDS011;43816;52.054;-9.494;2023-05-07T01:01:07;1.40;;;0.80;;
57615;SDS011;43816;52.054;-9.494;2023-05-07T01:01:18;1.52;;;0.82;;
57615;SDS011;43816;52.054;-9.494;2023-05-07T01:01:28;1.30;;;0.70;;
57615;SDS011;43816;52.054;-9.494;2023-05-07T01:01:38;1.00;;;0.60;;
57615;SDS011;43816;52.054;-9.494;2023-05-07T01:01:49;0.88;;;0.70;;
57615;SDS011;43816;52.054;-9.494;2023-05-07T01:01:59;0.90;;;0.80;;
57615;SDS011;43816;52.054;-9.494;2023-05-07T01:02:10;1.30;;;0.73;;
57615;SDS011;43816;52.054;-9.494;2023-05-07T01:02:20;1.25;;;0.70;;